WXM80 ListenWXM80 Stop

You find our weather info also at:

UK Metoffice

WeatherCloud

Weather Underground

Northeastern Weather Network

AWEKAS

Citizen Weather Observer Program (CWOP)

HAMweather, WeatherForYou, PWS Weather


Weather Underground History page Text

Daily Summary for December 12, 2017 Units:  Metric    English   Both
« Previous Day
Next Day »
Daily Weekly Monthly Yearly Custom
  High: Low: Average:
Temperature: -17.8 °C 0.6 °C 5.3 °C
Dew Point: -17.8 °C -5.3 °C 1.8 °C
Humidity: Humidity % 65 % 78 %
Wind Speed: 0 km/h 0 km/h 6 km/h
Wind Gust: 0 km/h - -
Wind:- - SW
Pressure: 0 hPa 995.5 hPa -
Precipitation: 0 mm    
Historical Graphs
 
 
Tabular Data for December 12, 2017
Time Temperature Dew Point Pressure Wind Wind Speed Wind Gust Humidity Rainfall Rate (Hourly)
-17.8 °C -17.8 °C 0 hPa Calm     Humidity % 0 mm
00:01 1.6 °C -2.2 °C 1014.1 hPa Calm     76 % 0 mm
00:06 1.6 °C -2.2 °C 1014.1 hPa West 0.2 km/h 3.2 km/h 76 % 0 mm
00:08 1.6 °C -2.2 °C 1014.1 hPa West 0.5 km/h 1.9 km/h 76 % 0 mm
00:13 1.6 °C -2.4 °C 1013.8 hPa Calm     75 % 0 mm
00:18 1.6 °C -2.2 °C 1013.8 hPa Calm     76 % 0 mm
00:23 1.6 °C -2.2 °C 1013.8 hPa Calm     76 % 0 mm
00:33 1.6 °C -2.2 °C 1013.4 hPa Calm     76 % 0 mm
00:49 1.6 °C -2.5 °C 1013.4 hPa Calm     74 % 0 mm
01:04 1.7 °C -2.6 °C 1013.1 hPa West 0.6 km/h 3.2 km/h 73 % 0 mm
01:14 1.8 °C -2.6 °C 1012.8 hPa South 1.1 km/h 3.7 km/h 73 % 0 mm
01:19 1.8 °C -2.7 °C 1012.8 hPa SSE 1.4 km/h 3.7 km/h 72 % 0 mm
01:21 1.8 °C -2.6 °C 1012.8 hPa SSE 1 km/h 1.9 km/h 73 % 0 mm
01:31 1.9 °C -2.6 °C 1012.4 hPa SE 1.3 km/h 5.6 km/h 72 % 0 mm
01:36 1.9 °C -2.8 °C 1012.4 hPa SE 0.6 km/h 3.7 km/h 71 % 0 mm
01:41 2.1 °C -2.7 °C 1012.4 hPa SE 0.5 km/h   71 % 0 mm
01:46 2.1 °C -2.7 °C 1012.8 hPa Calm   1.9 km/h 71 % 0 mm
01:51 2.1 °C -2.6 °C 1012.4 hPa SE 0.6 km/h 3.7 km/h 71 % 0 mm
01:56 2.1 °C -2.6 °C 1012.4 hPa Calm     71 % 0 mm
02:01 2.1 °C -2.6 °C 1012.4 hPa Calm   3.7 km/h 71 % 0 mm
02:16 2.2 °C -2.4 °C 1012.1 hPa SE 0.6 km/h 1.9 km/h 72 % 0 mm
02:22 2.2 °C -2.4 °C 1011.7 hPa SE 2.4 km/h 3.7 km/h 72 % 0 mm
02:27 2.2 °C -2.4 °C 1011.7 hPa SE 1.1 km/h 3.7 km/h 72 % 0 mm
02:32 2.2 °C -2.4 °C 1011.4 hPa SE 2.9 km/h 5.6 km/h 72 % 0 mm
02:37 2.2 °C -2.4 °C 1011.4 hPa SE 2.3 km/h 4.8 km/h 72 % 0 mm
02:42 2.2 °C -2.2 °C 1011.4 hPa SE 2.7 km/h 5.6 km/h 73 % 0 mm
02:47 2.2 °C -2.2 °C 1011.1 hPa SSE 2.7 km/h 5.6 km/h 73 % 0 mm
02:52 2.2 °C -2.1 °C 1011.1 hPa SSE 2.1 km/h 5.6 km/h 73 % 0 mm
02:57 2.2 °C -2.1 °C 1011.1 hPa SSE 1.3 km/h 3.7 km/h 73 % 0 mm
03:02 2.2 °C -2.1 °C 1011.1 hPa SSE 0.2 km/h 1.9 km/h 73 % 0 mm
03:07 2.3 °C -2.1 °C 1010.7 hPa Calm   1.9 km/h 73 % 0 mm
03:12 2.3 °C -1.9 °C 1010.7 hPa SSE 0.8 km/h 3.7 km/h 74 % 0 mm
03:17 2.3 °C -1.8 °C 1010.7 hPa SSE 1.9 km/h 3.7 km/h 74 % 0 mm
03:22 2.3 °C -1.8 °C 1010.4 hPa Calm   3.7 km/h 74 % 0 mm
03:27 2.4 °C -1.8 °C 1010.4 hPa Calm   1.9 km/h 74 % 0 mm
03:32 2.5 °C -1.7 °C 1010.4 hPa SSE 0.3 km/h 1.9 km/h 74 % 0 mm
03:42 2.6 °C -1.4 °C 1010 hPa SSE 1.4 km/h 3.2 km/h 75 % 0 mm
03:47 2.7 °C -1.3 °C 1009.7 hPa SSE 1.3 km/h 1.9 km/h 75 % 0 mm
03:52 2.7 °C -1.3 °C 1009.7 hPa SSE 1.4 km/h 3.7 km/h 75 % 0 mm
03:57 2.7 °C -1.2 °C 1009.7 hPa SSE 0.2 km/h 3.7 km/h 76 % 0 mm
04:07 2.8 °C -0.8 °C 1009.4 hPa SE 1.9 km/h 5.6 km/h 77 % 0 mm
04:27 3 °C -0.4 °C 1009 hPa SE 0.6 km/h 1.9 km/h 78 % 0 mm
04:33 3.1 °C -0.4 °C 1009 hPa SE 4.2 km/h 6.4 km/h 78 % 0 mm
04:38 3.1 °C -0.2 °C 1009 hPa SE 1.3 km/h 3.7 km/h 79 % 0 mm
04:48 3.2 °C -0.1 °C 1008.7 hPa SE 0.8 km/h 5.6 km/h 79 % 0 mm
04:53 3.3 °C 0.2 °C 1008.4 hPa SE 0.6 km/h 3.7 km/h 80 % 0 mm
04:58 3.3 °C 0.2 °C 1008.4 hPa SE 0.5 km/h 1.9 km/h 80 % 0 mm
05:03 3.3 °C 0.2 °C 1008.4 hPa SE 0.5 km/h 3.7 km/h 80 % 0 mm
05:13 3.4 °C 0.5 °C 1008 hPa SE 0.3 km/h 1.9 km/h 81 % 0 mm
05:18 3.4 °C 0.5 °C 1008 hPa Calm   1.6 km/h 81 % 0 mm
05:23 3.5 °C 0.6 °C 1007.7 hPa SE 2.1 km/h 3.7 km/h 81 % 0 mm
05:33 3.6 °C 0.8 °C 1007.3 hPa ESE 1.3 km/h 3.7 km/h 82 % 0 mm
05:38 3.7 °C 0.9 °C 1007.3 hPa ESE 1.9 km/h 3.7 km/h 82 % 0 mm
05:43 3.7 °C 1.1 °C 1007 hPa ESE 2.6 km/h 3.7 km/h 83 % 0 mm
05:48 3.8 °C 1.2 °C 1007 hPa ESE 2.7 km/h 3.7 km/h 83 % 0 mm
05:53 3.9 °C 1.3 °C 1007 hPa ESE 2.7 km/h 5.6 km/h 83 % 0 mm
05:58 4 °C 1.6 °C 1007 hPa South 1.9 km/h 5.6 km/h 84 % 0 mm
06:03 4.1 °C 1.6 °C 1007 hPa SSE 4.2 km/h 7.4 km/h 84 % 0 mm
06:18 4.6 °C 2.1 °C 1007 hPa SSE 3.5 km/h 5.6 km/h 84 % 0 mm
06:23 4.7 °C 2.2 °C 1006.7 hPa SSE 3.7 km/h 7.4 km/h 84 % 0 mm
06:28 5 °C 2.5 °C 1006.7 hPa SE 4.5 km/h 9.3 km/h 84 % 0 mm
06:33 5.3 °C 2.8 °C 1006.7 hPa South 5.1 km/h 11.3 km/h 84 % 0 mm
06:38 5.4 °C 2.8 °C 1006.3 hPa SSE 4.8 km/h 5.6 km/h 83 % 0 mm
06:43 5.6 °C 2.9 °C 1006.3 hPa SE 6.8 km/h 13 km/h 83 % 0 mm
06:49 5.8 °C 3.2 °C 1006 hPa SE 10.5 km/h 10.5 km/h 83 % 0 mm
06:59 6.2 °C 3.3 °C 1005.6 hPa SE 8 km/h 11.1 km/h 82 % 0 mm
07:09 6.4 °C 3.4 °C 1005.6 hPa SE 4.2 km/h 9.3 km/h 81 % 0 mm
07:15 6.6 °C 3.5 °C 1005.3 hPa SE 5 km/h 11.3 km/h 81 % 0 mm
07:20 6.6 °C 3.7 °C 1005.3 hPa South 7.4 km/h 14.8 km/h 82 % 0 mm
07:25 6.7 °C 3.8 °C 1005.3 hPa SE 6.4 km/h 13 km/h 82 % 0 mm
07:30 6.7 °C 4 °C 1005 hPa SSE 2.9 km/h 9.3 km/h 83 % 0 mm
07:35 6.7 °C 4.1 °C 1005 hPa SSE 8 km/h 13 km/h 83 % 0 mm
07:40 6.7 °C 4.1 °C 1005 hPa SSE 3.9 km/h 5.6 km/h 83 % 0 mm
07:55 6.8 °C 4.5 °C 1004.3 hPa SSE 7.1 km/h 13 km/h 85 % 0 mm
08:05 6.9 °C 4.7 °C 1004.3 hPa SSE 3.7 km/h 8 km/h 86 % 0 mm
08:10 6.9 °C 4.7 °C 1003.9 hPa SE 4.2 km/h 5.6 km/h 86 % 0 mm
08:20 6.9 °C 4.9 °C 1003.9 hPa SSE 4.8 km/h 5.6 km/h 87 % 0 mm
08:25 6.9 °C 5.1 °C 1003.9 hPa SSE 5.6 km/h 7.4 km/h 88 % 0 mm
08:36 7 °C 5.2 °C 1003.6 hPa SE 2.1 km/h 5.6 km/h 88 % 0 mm
08:41 7.1 °C 5.2 °C 1003.6 hPa SSE 4.8 km/h 11.3 km/h 88 % 0 mm
08:46 7.2 °C 5.4 °C 1003.3 hPa SE 8 km/h 14.5 km/h 89 % 0 mm
08:51 7.2 °C 5.6 °C 1003.3 hPa SE 3.2 km/h 12.9 km/h 89 % 0 mm
08:56 7.3 °C 5.7 °C 1003.3 hPa SSE 3.2 km/h 11.3 km/h 89 % 0 mm
09:01 7.4 °C 5.7 °C 1002.9 hPa South 8 km/h 13 km/h 89 % 0 mm
09:06 7.6 °C 5.7 °C 1002.9 hPa SSE 4.7 km/h 11.1 km/h 88 % 0 mm
09:11 7.7 °C 5.8 °C 1002.9 hPa SSE 3.1 km/h 5.6 km/h 88 % 0 mm
09:16 7.8 °C 6.1 °C 1002.9 hPa SSE 4.8 km/h 11.3 km/h 89 % 0 mm
09:26 7.9 °C 6.2 °C 1002.6 hPa SSW 1.4 km/h 5.6 km/h 89 % 0 mm
09:31 8 °C 6.3 °C 1002.6 hPa South 2.4 km/h 4.8 km/h 89 % 0 mm
09:36 8 °C 6.3 °C 1002.6 hPa SSW 1.4 km/h 5.6 km/h 89 % 0 mm
09:46 8.1 °C 6.5 °C 1002.3 hPa South 1 km/h 3.7 km/h 90 % 0 mm
09:56 8.1 °C 6.7 °C 1001.9 hPa South 0.8 km/h 6.4 km/h 91 % 0 mm
10:06 8.2 °C 6.8 °C 1001.6 hPa SSW 2.3 km/h 5.6 km/h 91 % 0 mm
10:11 8.3 °C 7.1 °C 1001.6 hPa South 1.3 km/h 5.6 km/h 92 % 0 mm
10:31 8.7 °C 7.5 °C 1000.9 hPa South 1 km/h 1.9 km/h 92 % 0 mm
10:36 8.8 °C 7.8 °C 1000.9 hPa SW 1 km/h 5.6 km/h 93 % 0 mm
10:46 9.1 °C 7.8 °C 1000.6 hPa South 1.4 km/h 7.4 km/h 92 % 0 mm
10:56 9.2 °C 7.7 °C 1000.2 hPa South 1.6 km/h 5.6 km/h 90 % 0 mm
11:06 9.3 °C 7.4 °C 999.9 hPa South 4.2 km/h 8 km/h 88 % 0 mm
11:17 9.5 °C 7.3 °C 999.5 hPa South 1.6 km/h 9.3 km/h 86 % 0 mm
11:27 9.7 °C 7.2 °C 999.2 hPa SSW 2.6 km/h 5.6 km/h 84 % 0 mm
11:32 9.8 °C 7.2 °C 999.2 hPa South 7.4 km/h 18.5 km/h 84 % 0 mm
11:47 10.2 °C 7.4 °C 998.5 hPa South 5.6 km/h 11.1 km/h 83 % 0 mm
11:52 10.3 °C 7.6 °C 998.5 hPa SSE 6 km/h 18.5 km/h 83 % 0 mm
11:57 10.6 °C 7.8 °C 998.2 hPa SSW 6.8 km/h 9.7 km/h 83 % 0 mm
12:02 10.7 °C 7.9 °C 997.9 hPa South 5 km/h 9.3 km/h 83 % 0 mm
12:07 10.9 °C 7.8 °C 997.9 hPa South 5 km/h 11.1 km/h 81 % 0 mm
12:12 11.1 °C 7.9 °C 997.5 hPa South 5.3 km/h 11.3 km/h 81 % 0 mm
12:17 11.2 °C 8 °C 997.5 hPa SSW 10.6 km/h 17.7 km/h 81 % 0 mm
12:22 11.2 °C 7.7 °C 997.2 hPa South 8 km/h 11.3 km/h 79 % 0 mm
12:27 11.2 °C 7.4 °C 997.2 hPa SSW 6 km/h 9.3 km/h 78 % 0 mm
12:37 11.2 °C 7.4 °C 996.8 hPa SSW 8.9 km/h 14.5 km/h 78 % 0 mm
12:47 11.2 °C 7.5 °C 996.8 hPa South 7.7 km/h 14.5 km/h 78 % 0 mm
12:53 11.2 °C 7.5 °C 996.8 hPa SSE 6.1 km/h 11.1 km/h 78 % 0 mm
12:58 11.2 °C 7.4 °C 996.5 hPa South 5.3 km/h 13 km/h 78 % 0 mm
13:00 11.2 °C 7.4 °C 996.2 hPa SSW 5.3 km/h 14.8 km/h 78 % 0 mm
13:10 11.1 °C 7.4 °C 996.2 hPa South 6.8 km/h 16.1 km/h 78 % 0 mm
13:15 11 °C 7.5 °C 996.2 hPa SW 7.2 km/h 9.7 km/h 79 % 0 mm
13:20 10.9 °C 7.4 °C 996.2 hPa SW 4.8 km/h 7.4 km/h 79 % 0 mm
13:25 10.8 °C 7.2 °C 996.2 hPa SW 9.3 km/h 19.3 km/h 78 % 0 mm
13:35 10.6 °C 6.6 °C 996.2 hPa SW 7.6 km/h 18.5 km/h 76 % 0 mm
13:40 10.6 °C 6.5 °C 996.2 hPa West 8.9 km/h 13 km/h 76 % 0 mm
13:51 10.2 °C 5.9 °C 996.2 hPa WNW 4.8 km/h 20.9 km/h 75 % 0 mm
13:56 9.9 °C 5.9 °C 996.2 hPa West 8 km/h 14.5 km/h 76 % 0 mm
14:06 9.6 °C 5.6 °C 995.8 hPa SW 10.1 km/h 25.9 km/h 76 % 0 mm
14:16 9.2 °C 5.6 °C 996.2 hPa West 4.2 km/h 11.3 km/h 78 % 0 mm
14:21 8.9 °C 5.1 °C 995.8 hPa WSW 10.3 km/h 20.9 km/h 77 % 0 mm
14:26 8.8 °C 4.9 °C 996.2 hPa NW 5.3 km/h 18.5 km/h 77 % 0 mm
14:31 8.6 °C 4.6 °C 995.8 hPa WNW 14.8 km/h 24.1 km/h 76 % 0 mm
14:36 8.5 °C 4.5 °C 995.8 hPa WNW 10.9 km/h 18.5 km/h 76 % 0 mm
14:41 8.4 °C 4.4 °C 995.8 hPa SW 5.8 km/h 11.1 km/h 76 % 0 mm
14:46 8.3 °C 4.5 °C 995.8 hPa West 9.7 km/h 20.4 km/h 77 % 0 mm
14:51 8.2 °C 4.2 °C 996.2 hPa WSW 10.9 km/h 14.8 km/h 76 % 0 mm
14:56 8.1 °C 4.3 °C 995.8 hPa SW 6.6 km/h 11.3 km/h 77 % 0 mm
15:01 8.1 °C 4.3 °C 995.8 hPa NW 3.9 km/h 14.8 km/h 77 % 0 mm
15:06 8 °C 4.2 °C 995.8 hPa West 7.9 km/h 14.8 km/h 77 % 0 mm
15:11 7.9 °C 4.2 °C 995.8 hPa WNW 6.6 km/h 14.8 km/h 77 % 0 mm
15:16 7.9 °C 4.3 °C 995.8 hPa WNW 7.2 km/h 13 km/h 78 % 0 mm
15:26 7.8 °C 4.2 °C 995.5 hPa WNW 6.3 km/h 18.5 km/h 78 % 0 mm
15:31 7.8 °C 4.4 °C 995.8 hPa WNW 6.6 km/h 18.5 km/h 79 % 0 mm
15:36 7.7 °C 4.5 °C 995.8 hPa NW 7.6 km/h 14.8 km/h 80 % 0 mm
15:41 7.7 °C 4.4 °C 995.5 hPa NW 6.3 km/h 14.8 km/h 80 % 0 mm
15:46 7.6 °C 4.3 °C 995.8 hPa WNW 9 km/h 11.1 km/h 80 % 0 mm
15:51 7.4 °C 4.4 °C 995.5 hPa NW 10.6 km/h 18.5 km/h 81 % 0 mm
16:07 7.1 °C 4.2 °C 995.8 hPa West 3.9 km/h 18.5 km/h 82 % 0 mm
16:12 7 °C 4.3 °C 995.8 hPa NW 4.2 km/h 11.3 km/h 83 % 0 mm
16:17 6.8 °C 4 °C 995.8 hPa WNW 9 km/h 18.5 km/h 82 % 0 mm
16:27 6.7 °C 3.8 °C 995.5 hPa NW 6.4 km/h 11.1 km/h 82 % 0 mm
16:32 6.6 °C 3.8 °C 995.5 hPa WNW 9.2 km/h 14.8 km/h 82 % 0 mm
16:37 6.5 °C 3.7 °C 995.5 hPa WNW 8.7 km/h 16.7 km/h 82 % 0 mm
16:42 6.4 °C 3.6 °C 995.5 hPa WNW 8.4 km/h 24.1 km/h 82 % 0 mm
16:47 6.4 °C 3.7 °C 995.5 hPa WNW 3.2 km/h 9.7 km/h 83 % 0 mm
16:52 6.4 °C 3.7 °C 995.5 hPa WNW 7.6 km/h 11.3 km/h 83 % 0 mm
16:57 6.3 °C 3.7 °C 995.5 hPa West 8.2 km/h 13 km/h 83 % 0 mm
17:02 6.3 °C 3.8 °C 995.5 hPa West 7.1 km/h 14.8 km/h 84 % 0 mm
17:07 6.3 °C 3.8 °C 995.8 hPa NW 4.7 km/h 9.3 km/h 84 % 0 mm
17:12 6.2 °C 3.6 °C 995.8 hPa WNW 3.5 km/h 6.4 km/h 83 % 0 mm
17:17 6.2 °C 3.7 °C 995.8 hPa WNW 2.7 km/h 5.6 km/h 84 % 0 mm
17:22 6.2 °C 3.7 °C 995.8 hPa WNW 4 km/h 11.3 km/h 84 % 0 mm
17:27 6.2 °C 3.7 °C 995.8 hPa West 3.7 km/h 11.1 km/h 84 % 0 mm
17:42 6.1 °C 3.6 °C 996.2 hPa WSW 5 km/h 9.3 km/h 84 % 0 mm
17:47 6.1 °C 3.6 °C 995.8 hPa WSW 7.9 km/h 14.8 km/h 84 % 0 mm
17:57 6.1 °C 3.6 °C 995.8 hPa NW 7.7 km/h 18.5 km/h 84 % 0 mm
18:08 6.1 °C 3.2 °C 995.8 hPa West 9 km/h 16.1 km/h 82 % 0 mm
18:23 5.9 °C 2.8 °C 995.8 hPa WNW 10.5 km/h 14.8 km/h 80 % 0 mm
18:28 5.9 °C 2.7 °C 995.8 hPa West 12.2 km/h 20.4 km/h 80 % 0 mm
18:33 5.8 °C 2.7 °C 995.8 hPa West 15.6 km/h 20.4 km/h 80 % 0 mm
18:38 5.8 °C 2.4 °C 996.2 hPa West 9 km/h 13 km/h 79 % 0 mm
18:48 5.7 °C 2.4 °C 996.2 hPa West 8.4 km/h 16.7 km/h 79 % 0 mm
18:53 5.7 °C 2.3 °C 996.2 hPa SSW 11.1 km/h 18.5 km/h 79 % 0 mm
18:58 5.6 °C 2.2 °C 996.2 hPa NW 6.3 km/h 14.5 km/h 79 % 0 mm
19:03 5.5 °C 1.9 °C 996.2 hPa WNW 11.7 km/h 24.1 km/h 78 % 0 mm
19:08 5.4 °C 1.7 °C 996.2 hPa WSW 9 km/h 14.5 km/h 77 % 0 mm
19:13 5.3 °C 1.6 °C 996.2 hPa West 11.6 km/h 18.5 km/h 77 % 0 mm
19:18 5.2 °C 1.7 °C 995.8 hPa West 5.3 km/h 14.8 km/h 78 % 0 mm
19:23 5.2 °C 1.7 °C 996.2 hPa WSW 11.9 km/h 18.5 km/h 78 % 0 mm
19:28 5.1 °C 1.6 °C 995.8 hPa WNW 8.5 km/h 14.8 km/h 78 % 0 mm
19:33 5 °C 1.5 °C 996.2 hPa West 11.1 km/h 18.5 km/h 78 % 0 mm
19:34 5 °C 1.5 °C 995.8 hPa WNW 10 km/h 18.5 km/h 78 % 0 mm
19:39 4.9 °C 1.4 °C 996.2 hPa WNW 6 km/h 18.5 km/h 78 % 0 mm
19:44 4.9 °C 1.4 °C 996.2 hPa WSW 17.2 km/h 27.4 km/h 78 % 0 mm
19:49 4.8 °C 1.3 °C 996.5 hPa WSW 15.4 km/h 18.5 km/h 78 % 0 mm
19:59 4.7 °C 1.1 °C 996.2 hPa WNW 9.8 km/h 20.4 km/h 77 % 0 mm
20:04 4.7 °C 1.1 °C 996.2 hPa West 10.6 km/h 22.2 km/h 77 % 0 mm
20:14 4.6 °C 1.1 °C 996.5 hPa West 20.1 km/h 31.5 km/h 78 % 0 mm
20:24 4.1 °C -0.1 °C 996.5 hPa West 15.8 km/h 29.6 km/h 74 % 0 mm
20:34 3.6 °C -1.2 °C 996.5 hPa WNW 14.8 km/h 35.2 km/h 71 % 0 mm
20:39 3.3 °C -1.6 °C 996.5 hPa WSW 15.4 km/h 31.5 km/h 70 % 0 mm
20:59 2.7 °C -2.6 °C 995.8 hPa West 13.5 km/h 33.3 km/h 68 % 0 mm
21:04 2.6 °C -2.7 °C 995.8 hPa NNW 15 km/h 31.5 km/h 68 % 0 mm
21:24 2.3 °C -2.6 °C 996.2 hPa NW 8.5 km/h 20.4 km/h 70 % 0 mm
21:34 2.2 °C -3.1 °C 996.2 hPa North 14.2 km/h 31.5 km/h 68 % 0 mm
21:39 2.2 °C -3.1 °C 996.5 hPa WNW 18.2 km/h 31.5 km/h 68 % 0 mm
21:44 2.1 °C -3.2 °C 996.2 hPa WNW 10.3 km/h 24.1 km/h 68 % 0 mm
21:59 1.9 °C -2.9 °C 996.2 hPa WNW 13.5 km/h 18.5 km/h 70 % 0 mm
22:03 1.9 °C -3.2 °C 996.2 hPa West 13.8 km/h 22.2 km/h 69 % 0 mm
22:08 1.8 °C -3.3 °C 996.2 hPa WNW 9.8 km/h 18.5 km/h 69 % 0 mm
22:14 1.7 °C -3.4 °C 995.8 hPa NW 10.1 km/h 25.9 km/h 69 % 0 mm
22:19 1.7 °C -3.2 °C 996.2 hPa NW 10.8 km/h 19.3 km/h 70 % 0 mm
22:20 1.6 °C -3.3 °C 996.2 hPa WNW 11.1 km/h 18.5 km/h 70 % 0 mm
22:25 1.6 °C -3.1 °C 996.5 hPa NNW 11.9 km/h 24.1 km/h 71 % 0 mm
22:26 1.6 °C -3.1 °C 996.5 hPa WNW 11.3 km/h 24.1 km/h 71 % 0 mm
22:31 1.4 °C -3.4 °C 996.2 hPa WNW 12.7 km/h 22.2 km/h 70 % 0 mm
22:36 1.4 °C -3.2 °C 996.2 hPa NW 6.6 km/h 11.1 km/h 71 % 0 mm
22:41 1.4 °C -3.3 °C 996.2 hPa NW 9.8 km/h 31.5 km/h 71 % 0 mm
22:56 1.2 °C -4.1 °C 996.8 hPa NNW 9.2 km/h 20.4 km/h 68 % 0 mm
23:01 1.1 °C -3.9 °C 997.2 hPa WNW 10.3 km/h 22.5 km/h 69 % 0 mm
23:11 1 °C -3.9 °C 997.2 hPa WNW 11.6 km/h 20.4 km/h 70 % 0 mm
23:16 1 °C -4.1 °C 997.2 hPa NW 14.2 km/h 24.1 km/h 69 % 0 mm
23:21 0.9 °C -4.5 °C 997.2 hPa NW 8.7 km/h 14.8 km/h 67 % 0 mm
23:26 0.9 °C -4.5 °C 997.2 hPa NNW 16.6 km/h 31.5 km/h 67 % 0 mm
23:31 0.9 °C -4.3 °C 997.2 hPa NW 10.3 km/h 22.2 km/h 68 % 0 mm
23:36 0.8 °C -4.6 °C 997.2 hPa NW 10.5 km/h 20.4 km/h 67 % 0 mm
23:46 0.7 °C -4.9 °C 997.2 hPa WNW 13.2 km/h 18.5 km/h 66 % 0 mm
23:51 0.6 °C -4.9 °C 997.2 hPa NW 8.4 km/h 16.7 km/h 67 % 0 mm
23:56 0.6 °C -5.3 °C 997.2 hPa WNW 14.5 km/h 22.2 km/h 65 % 0 mm
Crab Meadow Weather
Compliments of Weather Underground - 2.5 mb

Script developed by  Jim McMurry - jmcmurry@mwt.net Adapted for the template by  Wim van der Kuil - Leuven-Template.eu

Heat Index: The heat index combines air temperature and dew point in an attempt to determine the human-perceived equivalent temperature - how hot it feels. The human body normally cools itself by sweating, which evaporates and carries heat away from the body. However, when the relative humidity is high the evaporation rate is reduced, so heat is removed from the body at a lower rate causing it to retain more heat than it would in dry air.